createdAt,value
2023-05-24T00:00:42.286Z,99939.10
2023-05-24T00:03:16.577Z,99936.52
2023-05-24T00:05:48.088Z,99934.80
2023-05-24T00:08:19.152Z,99933.95
2023-05-24T00:10:50.291Z,99935.33
2023-05-24T00:13:21.519Z,99933.27
2023-05-24T00:15:52.627Z,99932.70
2023-05-24T00:18:23.648Z,99930.80
2023-05-24T00:20:57.447Z,99926.31
2023-05-24T00:23:28.453Z,99925.31
2023-05-24T00:25:59.815Z,99924.79
2023-05-24T00:28:31.400Z,99922.86
2023-05-24T00:31:02.415Z,99922.83
2023-05-24T00:33:33.658Z,99921.94
2023-05-24T00:36:04.757Z,99917.96
2023-05-24T00:38:37.025Z,99916.76
2023-05-24T00:41:08.143Z,99913.59
2023-05-24T00:43:40.051Z,99912.67
2023-05-24T00:46:20.548Z,99916.17
2023-05-24T00:48:53.429Z,99915.36
2023-05-24T00:51:26.797Z,99914.36
2023-05-24T00:53:58.488Z,99914.74
2023-05-24T00:56:31.981Z,99915.54
2023-05-24T00:59:04.787Z,99912.96
2023-05-24T01:01:37.454Z,99910.39
2023-05-24T01:04:08.580Z,99915.05
2023-05-24T01:06:51.624Z,99915.23
2023-05-24T01:09:31.702Z,99910.27
2023-05-24T01:12:13.996Z,99908.25
2023-05-24T01:14:56.169Z,99906.09
2023-05-24T01:17:32.695Z,99908.86
2023-05-24T01:20:09.715Z,99910.59
2023-05-24T01:23:07.370Z,99913.98
2023-05-24T01:25:55.348Z,99918.48
2023-05-24T01:28:28.563Z,99916.66
2023-05-24T01:31:01.387Z,99916.60
2023-05-24T01:33:32.460Z,99920.45
2023-05-24T01:36:03.691Z,99919.89
2023-05-24T01:38:34.702Z,99919.63
2023-05-24T01:41:15.541Z,99924.16
2023-05-24T01:43:57.561Z,99923.89
2023-05-24T01:46:39.020Z,99922.55
2023-05-24T01:49:21.710Z,99923.58
2023-05-24T01:51:55.942Z,99924.27
2023-05-24T01:54:32.971Z,99924.81
2023-05-24T01:57:09.286Z,99927.05
2023-05-24T01:59:44.607Z,99928.31
2023-05-24T02:02:15.861Z,99925.81
2023-05-24T02:04:47.161Z,99925.15
2023-05-24T02:07:19.537Z,99926.88
2023-05-24T02:09:50.500Z,99927.45
2023-05-24T02:12:21.459Z,99926.61
2023-05-24T02:14:52.473Z,99929.91
2023-05-24T02:17:25.890Z,99927.72
2023-05-24T02:19:56.982Z,99927.58
2023-05-24T02:22:28.656Z,99929.16
2023-05-24T02:24:59.709Z,99926.92
2023-05-24T02:27:30.753Z,99928.67
2023-05-24T02:30:01.731Z,99928.26
2023-05-24T02:32:33.106Z,99931.05
2023-05-24T02:35:04.269Z,99934.20
2023-05-24T02:37:35.353Z,99937.38
2023-05-24T02:40:08.051Z,99937.27
2023-05-24T02:42:39.221Z,99936.46
2023-05-24T02:45:11.775Z,99938.25
2023-05-24T02:47:42.922Z,99933.10
2023-05-24T02:50:14.560Z,99931.38
2023-05-24T02:52:45.807Z,99930.04
2023-05-24T02:55:18.189Z,99929.73
2023-05-24T02:57:49.317Z,99931.66
2023-05-24T03:00:22.079Z,99931.39
2023-05-24T03:02:53.272Z,99933.14
2023-05-24T03:05:24.936Z,99933.73
2023-05-24T03:07:56.755Z,99935.14
2023-05-24T03:10:27.863Z,99933.96
2023-05-24T03:13:01.151Z,99938.27
2023-05-24T03:17:59.159Z,99939.37
2023-05-24T03:20:31.367Z,99937.96
2023-05-24T03:23:02.468Z,99941.13
2023-05-24T03:25:33.671Z,99942.23
2023-05-24T03:28:04.829Z,99946.98
2023-05-24T03:30:36.652Z,99945.94
2023-05-24T03:33:07.773Z,99947.98
2023-05-24T03:35:38.732Z,99948.45
2023-05-24T03:38:09.764Z,99949.25
2023-05-24T03:40:41.978Z,99949.52
2023-05-24T03:43:20.213Z,99948.84
2023-05-24T03:45:59.224Z,99946.56
2023-05-24T03:48:30.245Z,99951.17
2023-05-24T03:51:03.009Z,99950.58
2023-05-24T03:53:34.004Z,99953.41
2023-05-24T03:56:05.019Z,99956.39
2023-05-24T03:58:36.134Z,99959.48
2023-05-24T04:01:07.215Z,99967.31
2023-05-24T04:03:39.241Z,99970.20
2023-05-24T04:06:28.937Z,99968.77
2023-05-24T04:13:37.390Z,99967.50
2023-05-24T04:16:09.886Z,99969.05
2023-05-24T04:18:41.561Z,99976.34
2023-05-24T04:21:12.917Z,99980.85
2023-05-24T04:23:44.333Z,99980.70
2023-05-24T04:26:15.906Z,99984.14
2023-05-24T04:28:47.003Z,99990.60
2023-05-24T04:31:26.457Z,99995.09
2023-05-24T04:33:59.050Z,100000.00
2023-05-24T04:36:31.644Z,100000.24
2023-05-24T04:39:05.161Z,100002.25
2023-05-24T04:41:40.076Z,100003.88
2023-05-24T04:44:11.218Z,99995.77
2023-05-24T04:46:42.176Z,99994.39
2023-05-24T04:49:49.737Z,99994.94
2023-05-24T04:52:20.913Z,99994.59
2023-05-24T04:54:53.065Z,99998.98
2023-05-24T04:57:24.529Z,100000.95
2023-05-24T04:59:55.937Z,100002.87
2023-05-24T05:02:27.732Z,100005.80
2023-05-24T05:04:59.877Z,100007.40
2023-05-24T05:07:39.056Z,100004.52
2023-05-24T05:10:12.326Z,100005.23
2023-05-24T05:12:46.421Z,100006.84
2023-05-24T05:15:17.713Z,100006.00
2023-05-24T05:22:33.757Z,100013.02
2023-05-24T05:25:05.087Z,100019.99
2023-05-24T05:27:36.460Z,100025.45
2023-05-24T05:50:10.563Z,100023.48
2023-05-24T05:52:38.892Z,100027.40
2023-05-24T05:55:11.545Z,100030.58
2023-05-24T05:57:39.860Z,100031.27
2023-05-24T06:00:10.885Z,100036.88
2023-05-24T06:02:42.241Z,100042.95
2023-05-24T06:05:11.013Z,100042.09
2023-05-24T06:07:39.909Z,100043.27
2023-05-24T06:10:32.511Z,100048.43
2023-05-24T06:13:02.771Z,100056.09
2023-05-24T06:15:32.865Z,100053.13
2023-05-24T06:18:01.960Z,100050.59
2023-05-24T06:20:30.442Z,100053.38
2023-05-24T06:23:13.042Z,100055.04
2023-05-24T06:25:43.417Z,100057.55
2023-05-24T06:28:14.735Z,100061.80
2023-05-24T06:30:43.633Z,100063.38
2023-05-24T06:33:12.253Z,100062.54
2023-05-24T06:35:42.959Z,100070.21
2023-05-24T06:38:11.163Z,100075.83
2023-05-24T06:40:39.551Z,100076.21
2023-05-24T06:43:07.761Z,100083.95
2023-05-24T06:45:36.782Z,100088.81
2023-05-24T06:48:06.638Z,100089.96
2023-05-24T06:50:39.657Z,100092.28
2023-05-24T06:53:09.837Z,100094.96
2023-05-24T06:55:38.170Z,100098.23
2023-05-24T06:58:07.202Z,100099.48
2023-05-24T07:00:35.523Z,100101.55
2023-05-24T07:03:04.462Z,100105.20
2023-05-24T07:05:33.522Z,100104.08
2023-05-24T07:08:02.023Z,100106.95
2023-05-24T07:10:30.438Z,100104.13
2023-05-24T07:12:59.235Z,100102.77
2023-05-24T07:15:27.990Z,100100.29
2023-05-24T07:17:56.499Z,100104.05
2023-05-24T07:20:24.949Z,100106.98
2023-05-24T07:22:53.392Z,100111.18
2023-05-24T07:25:22.567Z,100111.20
2023-05-24T07:27:51.089Z,100116.16
2023-05-24T07:30:31.093Z,100121.92
2023-05-24T07:33:21.502Z,100125.30
2023-05-24T07:48:11.771Z,100144.92
2023-05-24T07:50:40.293Z,100144.22
2023-05-24T07:53:09.067Z,100148.23
2023-05-24T07:55:37.480Z,100149.78
2023-05-24T07:58:05.951Z,100150.27
2023-05-24T08:00:45.936Z,100152.64
2023-05-24T08:03:15.075Z,100148.56
2023-05-24T08:05:43.744Z,100144.69
2023-05-24T08:08:12.381Z,100150.15
2023-05-24T08:10:40.658Z,100154.43
2023-05-24T08:13:08.987Z,100150.46
2023-05-24T08:15:37.250Z,100155.64
2023-05-24T08:18:05.547Z,100158.41
2023-05-24T08:20:36.064Z,100161.95
2023-05-24T08:23:04.551Z,100157.64
2023-05-24T08:25:33.146Z,100161.77
2023-05-24T08:28:01.868Z,100162.28
2023-05-24T08:30:30.201Z,100159.99
2023-05-24T08:32:58.540Z,100161.83
2023-05-24T08:35:26.866Z,100163.08
2023-05-24T08:37:55.252Z,100163.66
2023-05-24T08:40:24.495Z,100163.26
2023-05-24T08:42:53.654Z,100165.56
2023-05-24T08:45:23.161Z,100163.44
2023-05-24T08:47:52.379Z,100163.42
2023-05-24T08:50:21.254Z,100170.96
2023-05-24T08:52:51.186Z,100168.89
2023-05-24T08:55:20.072Z,100173.66
2023-05-24T08:57:48.689Z,100177.25
2023-05-24T09:00:19.171Z,100172.52
2023-05-24T09:02:47.804Z,100175.67
2023-05-24T09:05:16.873Z,100178.08
2023-05-24T09:07:46.284Z,100186.82
2023-05-24T09:10:15.275Z,100182.20
2023-05-24T09:12:48.310Z,100189.34
2023-05-24T09:15:16.568Z,100191.25
2023-05-24T09:17:45.251Z,100192.73
2023-05-24T09:20:14.048Z,100195.17
2023-05-24T09:22:43.320Z,100199.26
2023-05-24T09:25:14.880Z,100200.60
2023-05-24T09:27:48.999Z,100200.48
2023-05-24T09:30:17.656Z,100203.69
2023-05-24T09:32:57.052Z,100204.48
2023-05-24T09:35:26.588Z,100208.80
2023-05-24T09:37:57.342Z,100210.73
2023-05-24T09:40:26.581Z,100211.94
2023-05-24T09:43:05.464Z,100211.84
2023-05-24T09:45:38.642Z,100211.73
2023-05-24T09:48:12.262Z,100212.31
2023-05-24T09:50:41.391Z,100214.50
2023-05-24T09:53:09.941Z,100214.95
2023-05-24T09:55:38.720Z,100213.71
2023-05-24T09:58:08.625Z,100213.14
2023-05-24T10:00:40.794Z,100212.71
2023-05-24T10:03:11.384Z,100213.56
2023-05-24T10:05:44.286Z,100212.80
2023-05-24T10:08:13.703Z,100210.77
2023-05-24T10:10:43.805Z,100213.15
2023-05-24T10:13:17.264Z,100216.45
2023-05-24T10:15:47.879Z,100218.40
2023-05-24T10:18:16.212Z,100219.77
2023-05-24T10:20:45.028Z,100222.29
2023-05-24T10:23:20.240Z,100222.77
2023-05-24T10:25:53.152Z,100223.95
2023-05-24T10:28:23.930Z,100226.20
2023-05-24T10:31:02.159Z,100229.58
2023-05-24T10:33:34.644Z,100232.20
2023-05-24T10:36:03.888Z,100231.58
2023-05-24T10:38:32.800Z,100231.00
2023-05-24T10:41:02.024Z,100228.61
2023-05-24T10:43:30.633Z,100225.27
2023-05-24T10:45:58.962Z,100228.64
2023-05-24T10:48:37.039Z,100231.29
2023-05-24T10:51:39.052Z,100230.63
2023-05-24T10:54:18.610Z,100238.17
2023-05-24T10:56:48.419Z,100239.50
2023-05-24T10:59:38.288Z,100238.06
2023-05-24T11:02:12.863Z,100238.98
2023-05-24T11:04:42.832Z,100242.64
2023-05-24T11:07:14.080Z,100243.98
2023-05-24T11:09:45.814Z,100245.27
2023-05-24T11:12:17.197Z,100250.63
2023-05-24T11:14:49.503Z,100247.40
2023-05-24T11:17:18.572Z,100252.29
2023-05-24T11:19:50.137Z,100250.02
2023-05-24T11:22:20.127Z,100249.70
2023-05-24T11:24:48.612Z,100252.35
2023-05-24T11:27:16.819Z,100248.82
2023-05-24T11:29:46.406Z,100254.95
2023-05-24T11:32:17.492Z,100255.05
2023-05-24T11:34:47.384Z,100253.39
2023-05-24T11:37:17.947Z,100251.52
2023-05-24T11:39:53.107Z,100251.31
2023-05-24T11:42:22.900Z,100252.70
2023-05-24T11:44:51.575Z,100254.13
2023-05-24T11:47:21.852Z,100259.45
2023-05-24T11:49:52.094Z,100260.70
2023-05-24T11:52:20.848Z,100257.23
2023-05-24T11:54:49.903Z,100251.86
2023-05-24T11:57:23.561Z,100251.58
2023-05-24T11:59:52.749Z,100253.46
2023-05-24T12:02:21.605Z,100252.15
2023-05-24T12:04:49.868Z,100253.52
2023-05-24T12:07:18.261Z,100254.30
2023-05-24T12:09:46.896Z,100249.95
2023-05-24T12:12:15.830Z,100251.66
2023-05-24T12:14:44.150Z,100249.79
2023-05-24T12:17:16.845Z,100248.21
2023-05-24T12:19:48.769Z,100244.69
2023-05-24T12:22:17.277Z,100246.77
2023-05-24T12:24:48.959Z,100242.92
2023-05-24T12:27:17.145Z,100245.63
2023-05-24T12:29:46.033Z,100241.87
2023-05-24T12:32:15.428Z,100238.28
2023-05-24T12:34:44.821Z,100239.02
2023-05-24T12:37:14.660Z,100237.83
2023-05-24T12:39:44.214Z,100237.15
2023-05-24T12:42:13.276Z,100236.64
2023-05-24T12:44:41.807Z,100233.59
2023-05-24T12:47:10.235Z,100229.15
2023-05-24T12:49:38.612Z,100235.16
2023-05-24T12:52:07.196Z,100233.70
2023-05-24T12:54:35.544Z,100235.19
2023-05-24T12:57:04.518Z,100234.98
2023-05-24T12:59:33.681Z,100233.80
2023-05-24T13:02:02.460Z,100233.80
2023-05-24T13:04:33.018Z,100236.64
2023-05-24T13:07:03.487Z,100238.30
2023-05-24T13:09:32.882Z,100236.79
2023-05-24T13:12:01.348Z,100231.29
2023-05-24T13:14:29.821Z,100228.67
2023-05-24T13:16:58.402Z,100230.79
2023-05-24T13:19:26.999Z,100227.23
2023-05-24T13:21:55.206Z,100228.55
2023-05-24T13:24:23.591Z,100224.90
2023-05-24T13:26:54.630Z,100226.79
2023-05-24T13:31:55.686Z,100219.36
2023-05-24T13:34:25.203Z,100220.94
2023-05-24T13:36:54.113Z,100227.17
2023-05-24T13:39:23.297Z,100228.75
2023-05-24T13:41:51.699Z,100230.76
2023-05-24T13:44:20.118Z,100230.50
2023-05-24T13:46:48.449Z,100231.69
2023-05-24T13:49:16.761Z,100235.23
2023-05-24T13:52:43.635Z,100237.17
2023-05-24T13:55:13.005Z,100239.67
2023-05-24T13:57:51.156Z,100242.45
2023-05-24T14:00:24.840Z,100249.52
2023-05-24T14:04:00.667Z,100255.39
2023-05-24T14:06:29.089Z,100267.79
2023-05-24T14:08:57.444Z,100274.56
2023-05-24T14:11:25.959Z,100278.34
2023-05-24T14:16:25.823Z,100279.92
2023-05-24T14:18:54.126Z,100279.84
2023-05-24T14:24:09.509Z,100288.46
2023-05-24T14:26:38.617Z,100290.61
2023-05-24T14:29:07.172Z,100294.75
2023-05-24T14:31:41.647Z,100286.39
2023-05-24T14:34:10.802Z,100280.11
2023-05-24T14:36:41.040Z,100281.61
2023-05-24T14:39:09.599Z,100275.80
2023-05-24T14:41:38.040Z,100275.09
2023-05-24T14:44:06.337Z,100271.87
2023-05-24T14:46:34.697Z,100273.75
2023-05-24T14:49:03.276Z,100278.37
2023-05-24T14:51:32.015Z,100281.38
2023-05-24T14:54:00.279Z,100285.85
2023-05-24T14:56:28.587Z,100285.70
2023-05-24T14:58:58.037Z,100283.74
2023-05-24T15:01:26.461Z,100283.38
2023-05-24T15:07:14.939Z,100284.92
2023-05-24T15:09:42.206Z,100279.67
2023-05-24T15:12:10.675Z,100282.13
2023-05-24T15:14:38.884Z,100285.48
2023-05-24T15:17:07.355Z,100292.38
2023-05-24T15:19:35.641Z,100298.89
2023-05-24T15:22:04.381Z,100296.30
2023-05-24T15:24:32.689Z,100294.48
2023-05-24T15:27:01.692Z,100295.14
2023-05-24T15:29:30.083Z,100292.45
2023-05-24T15:32:00.173Z,100294.48
2023-05-24T15:34:28.418Z,100293.72
2023-05-24T15:36:56.938Z,100292.90
2023-05-24T15:39:25.297Z,100289.91
2023-05-24T15:41:54.068Z,100296.40
2023-05-24T15:44:22.397Z,100308.39
2023-05-24T15:46:53.674Z,100314.06
2023-05-24T15:49:25.098Z,100318.48
2023-05-24T15:54:24.985Z,100323.70
2023-05-24T15:56:53.363Z,100324.05
2023-05-24T16:03:00.758Z,100330.76
2023-05-24T16:05:29.235Z,100333.52
2023-05-24T16:18:33.896Z,100352.30
2023-05-24T16:21:02.350Z,100355.94
2023-05-24T16:23:30.558Z,100363.10
2023-05-24T16:25:59.005Z,100367.27
2023-05-24T16:28:27.653Z,100371.08
2023-05-24T16:30:56.827Z,100375.98
2023-05-24T16:38:02.453Z,100383.45
2023-05-24T16:40:55.072Z,100380.06
2023-05-24T16:43:38.197Z,100381.48
2023-05-24T16:53:14.904Z,100385.34
2023-05-24T16:56:08.477Z,100382.28
2023-05-24T16:58:45.186Z,100386.16
2023-05-24T17:14:57.555Z,100388.21
2023-05-24T17:17:36.453Z,100392.36
2023-05-24T17:20:09.335Z,100390.96
2023-05-24T17:22:58.815Z,100393.83
2023-05-24T17:30:15.220Z,100409.81
2023-05-24T17:32:51.206Z,100413.30
2023-05-24T17:35:22.325Z,100415.64
2023-05-24T17:37:53.381Z,100416.77
2023-05-24T17:40:24.409Z,100412.38
2023-05-24T17:42:55.334Z,100415.25
2023-05-24T17:45:26.413Z,100413.98
2023-05-24T17:47:57.374Z,100419.13
2023-05-24T17:50:28.362Z,100425.57
2023-05-24T17:52:59.864Z,100424.98
2023-05-24T17:55:31.165Z,100427.77
2023-05-24T17:58:02.222Z,100430.84
2023-05-24T18:00:33.216Z,100435.27
2023-05-24T18:03:04.547Z,100440.21
2023-05-24T18:05:36.008Z,100443.77
2023-05-24T18:08:06.961Z,100446.83
2023-05-24T18:10:37.880Z,100450.00
2023-05-24T18:13:10.072Z,100453.38
2023-05-24T18:15:44.530Z,100454.70
2023-05-24T18:18:16.302Z,100463.45
2023-05-24T18:20:47.350Z,100468.99
2023-05-24T18:23:18.335Z,100472.77
2023-05-24T18:25:49.414Z,100475.75
2023-05-24T18:28:20.477Z,100479.38
2023-05-24T18:30:53.869Z,100483.64
2023-05-24T18:33:25.252Z,100491.62
2023-05-24T18:35:56.446Z,100497.35
2023-05-24T18:38:27.563Z,100497.39
2023-05-24T18:41:00.332Z,100500.59
2023-05-24T18:47:22.632Z,100507.96
2023-05-24T19:00:32.955Z,100512.35
2023-05-24T19:03:03.984Z,100512.68
2023-05-24T19:05:35.002Z,100517.90
2023-05-24T19:08:06.088Z,100521.71
2023-05-24T19:10:37.272Z,100523.64
2023-05-24T19:13:08.798Z,100524.68
2023-05-24T19:15:39.824Z,100529.85
2023-05-24T19:18:12.878Z,100526.52
2023-05-24T19:20:48.503Z,100524.73
2023-05-24T19:31:49.143Z,100528.75
2023-05-24T19:38:28.843Z,100542.15
2023-05-24T19:41:00.039Z,100539.83
2023-05-24T19:43:31.237Z,100543.23
2023-05-24T19:46:11.152Z,100545.55
2023-05-24T19:48:43.596Z,100543.89
2023-05-24T19:51:15.854Z,100551.91
2023-05-24T19:53:47.514Z,100553.02
2023-05-24T19:56:23.639Z,100553.61
2023-05-24T19:58:54.644Z,100553.69
2023-05-24T20:01:25.867Z,100551.37
2023-05-24T20:03:59.857Z,100555.41
2023-05-24T20:06:31.583Z,100559.45
2023-05-24T20:09:03.921Z,100559.38
2023-05-24T20:11:35.177Z,100559.30
2023-05-24T20:14:06.607Z,100558.73
2023-05-24T20:16:38.192Z,100560.11
2023-05-24T20:19:10.634Z,100563.04
2023-05-24T20:21:42.088Z,100560.77
2023-05-24T20:24:13.693Z,100565.44
2023-05-24T20:26:45.385Z,100563.54
2023-05-24T20:29:16.599Z,100563.23
2023-05-24T20:31:48.146Z,100564.55
2023-05-24T20:34:21.570Z,100564.86
2023-05-24T20:36:55.580Z,100563.92
2023-05-24T20:39:29.399Z,100565.86
2023-05-24T20:42:02.700Z,100566.35
2023-05-24T20:44:34.059Z,100575.13
2023-05-24T20:47:08.102Z,100575.98
2023-05-24T20:49:39.369Z,100575.32
2023-05-24T20:52:20.752Z,100573.08
2023-05-24T20:54:52.253Z,100577.18
2023-05-24T20:57:23.938Z,100575.09
2023-05-24T21:02:50.903Z,100576.15
2023-05-24T21:05:22.065Z,100577.52
2023-05-24T21:07:52.996Z,100577.45
2023-05-24T21:10:28.947Z,100582.25
2023-05-24T21:16:16.113Z,100591.37
2023-05-24T21:18:47.408Z,100590.67
2023-05-24T21:21:40.672Z,100590.33
2023-05-24T21:24:12.002Z,100594.08
2023-05-24T21:26:43.162Z,100595.91
2023-05-24T21:29:15.240Z,100595.36
2023-05-24T21:31:46.472Z,100600.84
2023-05-24T21:34:17.703Z,100602.63
2023-05-24T21:37:08.766Z,100605.52
2023-05-24T21:40:06.436Z,100606.06
2023-05-24T21:42:38.165Z,100608.84
2023-05-24T21:45:11.130Z,100606.40
2023-05-24T21:47:43.086Z,100605.81
2023-05-24T21:50:14.417Z,100604.22
2023-05-24T21:52:45.953Z,100608.82
2023-05-24T21:55:17.255Z,100610.85
2023-05-24T22:00:39.323Z,100615.13
2023-05-24T22:03:10.727Z,100617.92
2023-05-24T22:05:41.756Z,100618.86
2023-05-24T22:08:13.068Z,100615.09
2023-05-24T22:10:44.290Z,100612.02
2023-05-24T22:13:15.977Z,100613.81
2023-05-24T22:15:47.119Z,100619.23
2023-05-24T22:18:18.491Z,100622.59
2023-05-24T22:20:51.888Z,100620.80
2023-05-24T22:23:22.994Z,100619.33
2023-05-24T22:25:53.976Z,100620.47
2023-05-24T22:28:25.068Z,100623.86
2023-05-24T22:30:57.936Z,100622.75
2023-05-24T22:33:29.085Z,100625.46
2023-05-24T22:36:02.201Z,100628.55
2023-05-24T22:38:33.303Z,100625.08
2023-05-24T22:41:04.268Z,100630.72
2023-05-24T22:43:35.245Z,100630.64
2023-05-24T22:46:07.794Z,100635.91
2023-05-24T22:48:41.188Z,100635.52
2023-05-24T22:51:13.263Z,100632.71
2023-05-24T22:53:44.404Z,100634.38
2023-05-24T22:56:15.389Z,100628.80
2023-05-24T22:58:46.350Z,100630.25
2023-05-24T23:01:17.704Z,100626.38
2023-05-24T23:03:48.724Z,100625.13
2023-05-24T23:06:21.241Z,100626.60
2023-05-24T23:08:52.325Z,100625.50
2023-05-24T23:11:24.476Z,100627.18
2023-05-24T23:13:59.696Z,100628.86
2023-05-24T23:16:32.020Z,100630.19
2023-05-24T23:19:04.952Z,100631.18
2023-05-24T23:21:37.169Z,100633.87
2023-05-24T23:24:14.354Z,100634.52
2023-05-24T23:26:47.690Z,100637.89
2023-05-24T23:29:18.671Z,100634.89
2023-05-24T23:31:51.706Z,100640.33
2023-05-24T23:34:22.716Z,100638.34
2023-05-24T23:36:55.949Z,100649.13
2023-05-24T23:39:28.840Z,100650.80
2023-05-24T23:42:02.630Z,100652.63
2023-05-24T23:44:33.642Z,100655.47
2023-05-24T23:47:04.804Z,100661.40
2023-05-24T23:49:36.564Z,100663.05
2023-05-24T23:52:08.343Z,100666.61
2023-05-24T23:54:39.804Z,100665.84
2023-05-24T23:57:10.840Z,100664.75
2023-05-24T23:59:41.938Z,100663.30
